createdAt,value
2019-05-22T00:01:37.161Z,43.48
2019-05-22T00:04:24.252Z,39.88
2019-05-22T00:06:54.725Z,43.08
2019-05-22T00:09:28.344Z,44.65
2019-05-22T00:11:58.777Z,43.25
2019-05-22T00:14:28.328Z,44.30
2019-05-22T00:16:59.386Z,44.48
2019-05-22T00:19:30.373Z,44.23
2019-05-22T00:22:09.514Z,42.85
2019-05-22T00:24:42.114Z,43.28
2019-05-22T00:27:12.358Z,48.95
2019-05-22T00:29:43.695Z,45.63
2019-05-22T00:32:14.076Z,47.30
2019-05-22T00:34:42.852Z,47.33
2019-05-22T00:37:11.761Z,46.65
2019-05-22T00:39:41.171Z,51.40
2019-05-22T00:42:11.327Z,52.15
2019-05-22T00:44:41.893Z,45.65
2019-05-22T00:47:14.654Z,47.35
2019-05-22T00:49:46.441Z,47.58
2019-05-22T00:52:36.608Z,49.98
2019-05-22T00:55:14.159Z,46.40
2019-05-22T00:57:56.204Z,47.27
2019-05-22T01:00:35.200Z,45.40
2019-05-22T01:03:06.273Z,45.03
2019-05-22T01:05:37.456Z,45.30
2019-05-22T01:08:06.941Z,46.42
2019-05-22T01:10:39.171Z,44.63
2019-05-22T01:13:09.751Z,44.30
2019-05-22T01:15:40.733Z,41.20
2019-05-22T01:18:12.534Z,42.50
2019-05-22T01:20:42.682Z,42.93
2019-05-22T01:23:17.841Z,41.55
2019-05-22T01:25:47.875Z,42.85
2019-05-22T01:28:17.549Z,41.68
2019-05-22T01:31:06.612Z,40.83
2019-05-22T01:33:44.354Z,38.53
2019-05-22T01:36:32.486Z,40.80
2019-05-22T01:39:16.831Z,38.55
2019-05-22T01:41:50.344Z,35.08
2019-05-22T01:44:21.067Z,36.95
2019-05-22T01:46:51.347Z,38.63
2019-05-22T01:49:21.944Z,32.28
2019-05-22T01:51:51.151Z,33.15
2019-05-22T01:54:21.745Z,32.50
2019-05-22T01:56:51.605Z,35.58
2019-05-22T01:59:21.551Z,30.97
2019-05-22T02:01:51.947Z,28.23
2019-05-22T02:04:21.913Z,27.60
2019-05-22T02:06:51.421Z,27.07
2019-05-22T02:09:30.736Z,26.50
2019-05-22T02:12:08.190Z,26.60
2019-05-22T02:14:41.532Z,25.15
2019-05-22T02:17:12.064Z,28.40
2019-05-22T02:19:41.845Z,27.13
2019-05-22T02:22:12.985Z,27.58
2019-05-22T02:24:42.027Z,28.65
2019-05-22T02:27:12.749Z,27.15
2019-05-22T02:29:41.698Z,30.48
2019-05-22T02:32:13.836Z,29.67
2019-05-22T02:34:43.958Z,30.60
2019-05-22T02:37:14.316Z,31.30
2019-05-22T02:39:43.003Z,30.15
2019-05-22T02:42:16.237Z,32.38
2019-05-22T02:47:19.682Z,30.05
2019-05-22T02:49:48.788Z,27.60
2019-05-22T02:52:17.462Z,21.68
2019-05-22T02:54:47.418Z,24.15
2019-05-22T02:57:16.636Z,21.60
2019-05-22T02:59:45.879Z,23.10
2019-05-22T03:02:15.731Z,26.07
2019-05-22T03:05:07.088Z,26.80
2019-05-22T03:07:36.886Z,20.88
2019-05-22T03:10:07.913Z,24.65
2019-05-22T03:12:38.609Z,25.50
2019-05-22T03:15:13.206Z,23.20
2019-05-22T03:17:45.541Z,23.42
2019-05-22T03:20:21.028Z,22.93
2019-05-22T03:23:28.130Z,24.43
2019-05-22T03:25:56.992Z,19.55
2019-05-22T03:28:26.932Z,22.05
2019-05-22T03:30:55.619Z,22.87
2019-05-22T03:33:24.763Z,24.45
2019-05-22T03:36:05.688Z,24.63
2019-05-22T03:38:34.373Z,27.25
2019-05-22T03:41:04.136Z,29.02
2019-05-22T03:43:33.378Z,28.75
2019-05-22T03:46:10.946Z,31.35
2019-05-22T03:48:40.283Z,38.45
2019-05-22T03:51:13.358Z,35.63
2019-05-22T03:53:43.769Z,36.23
2019-05-22T03:56:13.293Z,41.05
2019-05-22T03:58:42.115Z,39.00
2019-05-22T04:01:12.397Z,37.73
2019-05-22T04:03:41.068Z,39.10
2019-05-22T04:06:09.859Z,41.65
2019-05-22T04:08:39.227Z,40.08
2019-05-22T04:11:10.237Z,41.77
2019-05-22T04:13:40.059Z,43.02
2019-05-22T04:16:12.635Z,38.75
2019-05-22T04:18:41.718Z,37.08
2019-05-22T04:21:10.637Z,43.90
2019-05-22T04:23:39.890Z,38.08
2019-05-22T04:26:11.836Z,40.03
2019-05-22T04:28:54.972Z,39.20
2019-05-22T04:31:39.183Z,42.17
2019-05-22T04:34:07.857Z,38.67
2019-05-22T04:36:37.574Z,37.60
2019-05-22T04:39:11.451Z,28.35
2019-05-22T04:41:40.623Z,37.38
2019-05-22T04:44:09.308Z,34.58
2019-05-22T04:46:38.262Z,38.08
2019-05-22T04:49:07.706Z,37.17
2019-05-22T04:51:36.403Z,35.80
2019-05-22T04:54:05.121Z,31.87
2019-05-22T04:56:33.977Z,36.23
2019-05-22T04:59:03.564Z,39.38
2019-05-22T05:01:32.533Z,35.20
2019-05-22T05:04:01.415Z,31.50
2019-05-22T05:06:33.712Z,32.60
2019-05-22T05:09:03.969Z,32.23
2019-05-22T05:11:33.853Z,32.53
2019-05-22T05:14:02.539Z,32.40
2019-05-22T05:16:31.283Z,32.75
2019-05-22T05:19:00.367Z,31.23
2019-05-22T05:21:29.202Z,34.55
2019-05-22T05:23:57.903Z,34.60
2019-05-22T05:26:26.731Z,30.80
2019-05-22T05:28:55.755Z,32.08
2019-05-22T05:31:25.720Z,31.95
2019-05-22T05:34:27.420Z,30.65
2019-05-22T05:36:57.225Z,29.12
2019-05-22T05:40:08.201Z,29.92
2019-05-22T05:42:37.944Z,30.68
2019-05-22T05:45:08.864Z,27.73
2019-05-22T05:47:38.634Z,30.00
2019-05-22T05:50:10.512Z,32.30
2019-05-22T05:52:40.246Z,31.07
2019-05-22T05:55:09.559Z,32.48
2019-05-22T05:58:22.926Z,30.50
2019-05-22T06:00:56.240Z,29.27
2019-05-22T06:03:34.581Z,31.37
2019-05-22T06:06:12.482Z,31.90
2019-05-22T06:08:41.926Z,29.95
2019-05-22T06:11:45.017Z,28.42
2019-05-22T06:14:22.194Z,28.30
2019-05-22T06:17:40.292Z,28.47
2019-05-22T06:20:11.753Z,27.27
2019-05-22T06:22:43.413Z,29.05
2019-05-22T06:25:13.940Z,27.50
2019-05-22T06:27:44.458Z,26.82
2019-05-22T06:30:19.123Z,24.32
2019-05-22T06:33:28.832Z,22.05
2019-05-22T06:35:57.988Z,22.58
2019-05-22T06:39:00.737Z,24.70
2019-05-22T06:41:35.241Z,21.77
2019-05-22T06:44:28.299Z,23.85
2019-05-22T06:46:57.567Z,21.97
2019-05-22T06:49:51.696Z,19.40
2019-05-22T06:52:20.907Z,19.67
2019-05-22T06:54:50.648Z,19.77
2019-05-22T06:57:25.416Z,16.90
2019-05-22T07:00:12.009Z,21.48
2019-05-22T07:02:26.988Z,20.20
2019-05-22T07:04:55.756Z,22.82
2019-05-22T07:07:28.550Z,19.35
2019-05-22T07:09:57.817Z,24.18
2019-05-22T07:12:28.207Z,22.85
2019-05-22T07:15:28.477Z,25.82
2019-05-22T07:17:57.669Z,21.33
2019-05-22T07:20:28.501Z,17.60
2019-05-22T07:22:58.766Z,18.02
2019-05-22T07:25:29.034Z,19.48
2019-05-22T07:27:58.486Z,21.00
2019-05-22T07:30:27.308Z,19.45
2019-05-22T07:32:56.526Z,22.22
2019-05-22T07:35:45.640Z,20.45
2019-05-22T07:37:58.216Z,19.17
2019-05-22T07:40:27.012Z,20.77
2019-05-22T07:42:56.453Z,17.57
2019-05-22T07:45:28.147Z,14.15
2019-05-22T07:47:58.271Z,13.40
2019-05-22T07:50:29.187Z,14.87
2019-05-22T07:52:58.544Z,15.50
2019-05-22T07:55:28.274Z,14.50
2019-05-22T07:58:11.739Z,14.20
2019-05-22T08:03:12.984Z,10.98
2019-05-22T08:05:45.222Z,11.08
2019-05-22T08:08:18.722Z,12.00
2019-05-22T08:10:47.297Z,13.22
2019-05-22T08:13:15.965Z,11.45
2019-05-22T08:15:47.882Z,13.50
2019-05-22T08:18:17.232Z,11.95
2019-05-22T08:20:46.028Z,10.70
2019-05-22T08:23:15.350Z,11.80
2019-05-22T08:25:44.303Z,11.97
2019-05-22T08:28:13.623Z,11.28
2019-05-22T08:30:42.429Z,10.55
2019-05-22T08:33:14.153Z,10.32
2019-05-22T08:35:44.712Z,11.73
2019-05-22T08:38:13.852Z,12.30
2019-05-22T08:40:43.437Z,11.10
2019-05-22T08:43:13.128Z,13.03
2019-05-22T08:45:41.952Z,9.35
2019-05-22T08:48:12.141Z,11.57
2019-05-22T08:50:44.182Z,12.13
2019-05-22T08:53:14.760Z,11.05
2019-05-22T08:55:44.496Z,11.73
2019-05-22T08:58:14.700Z,11.38
2019-05-22T09:00:43.794Z,11.63
2019-05-22T09:03:12.867Z,10.78
2019-05-22T09:05:41.712Z,10.68
2019-05-22T09:08:10.497Z,6.70
2019-05-22T09:10:39.234Z,12.95
2019-05-22T09:13:08.162Z,10.93
2019-05-22T09:15:38.408Z,14.73
2019-05-22T09:18:08.429Z,15.10
2019-05-22T09:20:48.642Z,13.70
2019-05-22T09:23:09.647Z,16.17
2019-05-22T09:25:38.308Z,16.42
2019-05-22T09:28:07.914Z,15.98
2019-05-22T09:30:36.694Z,15.95
2019-05-22T09:33:06.405Z,13.93
2019-05-22T09:35:35.454Z,16.60
2019-05-22T09:38:04.428Z,17.05
2019-05-22T09:40:33.161Z,16.97
2019-05-22T09:43:02.235Z,14.87
2019-05-22T09:45:31.629Z,13.48
2019-05-22T09:48:00.959Z,14.00
2019-05-22T09:50:30.163Z,12.33
2019-05-22T09:52:59.377Z,12.60
2019-05-22T09:55:28.719Z,9.75
2019-05-22T09:57:57.463Z,9.88
2019-05-22T10:00:27.258Z,9.70
2019-05-22T10:02:56.105Z,11.48
2019-05-22T10:05:25.495Z,9.03
2019-05-22T10:08:01.121Z,8.70
2019-05-22T10:10:26.784Z,9.23
2019-05-22T10:12:55.626Z,9.95
2019-05-22T10:15:25.546Z,9.33
2019-05-22T10:17:54.692Z,7.53
2019-05-22T10:20:24.024Z,9.18
2019-05-22T10:22:52.775Z,8.90
2019-05-22T10:25:21.971Z,7.75
2019-05-22T10:27:50.782Z,7.55
2019-05-22T10:30:22.615Z,6.62
2019-05-22T10:32:51.647Z,7.83
2019-05-22T10:35:23.206Z,8.23
2019-05-22T10:37:52.122Z,7.58
2019-05-22T10:40:21.582Z,8.05
2019-05-22T10:42:50.327Z,8.13
2019-05-22T10:45:19.370Z,7.75
2019-05-22T10:47:49.799Z,9.60
2019-05-22T10:50:19.312Z,7.90
2019-05-22T10:52:53.927Z,9.25
2019-05-22T10:55:20.836Z,8.65
2019-05-22T10:57:49.835Z,7.87
2019-05-22T11:00:20.820Z,9.18
2019-05-22T11:02:50.125Z,8.65
2019-05-22T11:05:21.413Z,9.03
2019-05-22T11:07:51.567Z,9.65
2019-05-22T11:10:22.824Z,8.75
2019-05-22T11:12:51.767Z,8.48
2019-05-22T11:15:21.734Z,8.40
2019-05-22T11:17:50.598Z,9.73
2019-05-22T11:20:19.894Z,10.82
2019-05-22T11:22:49.324Z,8.80
2019-05-22T11:25:18.892Z,8.93
2019-05-22T11:27:47.697Z,7.95
2019-05-22T11:30:17.513Z,8.55
2019-05-22T11:32:46.629Z,9.40
2019-05-22T11:35:17.032Z,8.93
2019-05-22T11:37:47.446Z,9.13
2019-05-22T11:40:17.913Z,7.17
2019-05-22T11:42:46.951Z,8.35
2019-05-22T11:45:16.756Z,8.55
2019-05-22T11:47:45.717Z,8.75
2019-05-22T11:50:16.679Z,8.28
2019-05-22T11:52:46.611Z,6.80
2019-05-22T11:55:16.722Z,9.55
2019-05-22T11:57:46.915Z,7.67
2019-05-22T12:00:18.267Z,9.20
2019-05-22T12:02:47.935Z,12.05
2019-05-22T12:05:17.277Z,8.50
2019-05-22T12:07:47.938Z,10.00
2019-05-22T12:10:19.581Z,9.50
2019-05-22T12:12:49.475Z,10.82
2019-05-22T12:15:22.157Z,11.43
2019-05-22T12:17:50.907Z,9.88
2019-05-22T12:20:20.911Z,11.00
2019-05-22T12:22:49.635Z,10.68
2019-05-22T12:25:18.953Z,9.73
2019-05-22T12:27:48.044Z,10.53
2019-05-22T12:30:18.908Z,10.50
2019-05-22T12:32:48.204Z,10.00
2019-05-22T12:35:17.934Z,9.58
2019-05-22T12:37:47.010Z,9.45
2019-05-22T12:40:19.086Z,9.50
2019-05-22T12:42:48.684Z,9.38
2019-05-22T12:45:23.470Z,9.53
2019-05-22T12:47:53.389Z,10.75
2019-05-22T12:50:22.478Z,9.18
2019-05-22T12:52:52.078Z,10.03
2019-05-22T12:55:21.432Z,9.40
2019-05-22T12:57:50.788Z,8.93
2019-05-22T13:00:22.411Z,8.48
2019-05-22T13:02:52.102Z,9.58
2019-05-22T13:05:21.617Z,8.25
2019-05-22T13:07:51.700Z,9.63
2019-05-22T13:10:21.357Z,8.28
2019-05-22T13:12:50.196Z,8.43
2019-05-22T13:15:19.937Z,8.83
2019-05-22T13:17:49.091Z,7.55
2019-05-22T13:20:40.632Z,7.12
2019-05-22T13:22:55.054Z,7.47
2019-05-22T13:25:26.198Z,6.50
2019-05-22T13:27:55.175Z,7.33
2019-05-22T13:30:28.731Z,6.33
2019-05-22T13:32:57.116Z,6.28
2019-05-22T13:35:28.079Z,5.50
2019-05-22T13:37:58.102Z,6.87
2019-05-22T13:40:28.782Z,6.92
2019-05-22T13:42:58.786Z,6.20
2019-05-22T13:45:30.195Z,7.25
2019-05-22T13:47:59.308Z,6.30
2019-05-22T13:50:29.932Z,7.53
2019-05-22T13:53:00.598Z,6.75
2019-05-22T13:55:30.139Z,7.03
2019-05-22T13:57:59.795Z,6.37
2019-05-22T14:00:28.816Z,7.72
2019-05-22T14:02:58.063Z,8.30
2019-05-22T14:05:28.899Z,8.35
2019-05-22T14:07:58.074Z,7.60
2019-05-22T14:10:27.907Z,6.62
2019-05-22T14:12:57.191Z,7.42
2019-05-22T14:15:26.413Z,6.87
2019-05-22T14:17:55.729Z,6.97
2019-05-22T14:20:25.573Z,7.30
2019-05-22T14:22:54.733Z,7.10
2019-05-22T14:25:25.747Z,7.87
2019-05-22T14:27:54.888Z,7.55
2019-05-22T14:30:25.403Z,6.78
2019-05-22T14:32:54.613Z,6.40
2019-05-22T14:35:25.627Z,6.92
2019-05-22T14:37:54.649Z,6.47
2019-05-22T14:40:23.495Z,5.87
2019-05-22T14:42:52.551Z,6.30
2019-05-22T14:45:21.571Z,5.60
2019-05-22T14:47:50.260Z,5.87
2019-05-22T14:50:19.692Z,4.97
2019-05-22T14:52:48.462Z,5.22
2019-05-22T14:55:17.685Z,5.00
2019-05-22T14:57:47.502Z,6.12
2019-05-22T15:00:19.554Z,6.58
2019-05-22T15:02:54.294Z,6.25
2019-05-22T15:05:19.417Z,6.42
2019-05-22T15:07:48.086Z,6.40
2019-05-22T15:10:18.041Z,5.25
2019-05-22T15:12:47.942Z,4.90
2019-05-22T15:15:17.381Z,5.62
2019-05-22T15:17:46.320Z,4.87
2019-05-22T15:20:17.262Z,5.05
2019-05-22T15:22:46.103Z,5.45
2019-05-22T15:25:15.218Z,5.15
2019-05-22T15:27:44.599Z,5.08
2019-05-22T15:30:15.445Z,5.53
2019-05-22T15:32:44.641Z,4.80
2019-05-22T15:35:14.330Z,4.67
2019-05-22T15:37:43.472Z,4.87
2019-05-22T15:40:12.563Z,4.42
2019-05-22T15:42:43.800Z,4.28
2019-05-22T15:45:16.040Z,4.55
2019-05-22T15:47:56.853Z,5.97
2019-05-22T15:50:26.626Z,4.73
2019-05-22T15:53:01.352Z,4.65
2019-05-22T15:55:31.220Z,4.35
2019-05-22T15:58:01.733Z,4.12
2019-05-22T16:00:33.668Z,4.12
2019-05-22T16:03:11.064Z,4.67
2019-05-22T16:05:41.579Z,4.30
2019-05-22T16:08:11.243Z,4.17
2019-05-22T16:10:42.956Z,4.62
2019-05-22T16:13:16.393Z,4.90
2019-05-22T16:15:49.001Z,4.17
2019-05-22T16:18:22.114Z,4.10
2019-05-22T16:23:21.453Z,3.40
2019-05-22T16:25:52.343Z,4.35
2019-05-22T16:28:22.541Z,4.62
2019-05-22T16:30:52.328Z,3.92
2019-05-22T16:33:23.623Z,3.95
2019-05-22T16:35:52.851Z,3.37
2019-05-22T16:38:23.446Z,3.87
2019-05-22T16:40:52.781Z,4.33
2019-05-22T16:43:21.614Z,4.20
2019-05-22T16:45:51.660Z,3.85
2019-05-22T16:48:29.152Z,3.72
2019-05-22T16:50:52.610Z,4.42
2019-05-22T16:53:23.409Z,3.67
2019-05-22T16:55:52.227Z,3.85
2019-05-22T16:58:21.195Z,3.55
2019-05-22T17:00:50.015Z,3.90
2019-05-22T17:03:19.617Z,3.52
2019-05-22T17:05:48.379Z,3.95
2019-05-22T17:08:18.469Z,3.65
2019-05-22T17:10:48.672Z,2.70
2019-05-22T17:13:18.382Z,2.80
2019-05-22T17:15:47.366Z,3.10
2019-05-22T17:18:17.097Z,2.87
2019-05-22T17:20:46.951Z,3.55
2019-05-22T17:23:16.546Z,3.42
2019-05-22T17:25:45.829Z,4.03
2019-05-22T17:28:16.198Z,3.42
2019-05-22T17:30:46.116Z,3.50
2019-05-22T17:33:15.230Z,3.98
2019-05-22T17:35:45.174Z,3.60
2019-05-22T17:38:15.038Z,3.08
2019-05-22T17:40:44.483Z,3.40
2019-05-22T17:43:14.685Z,3.12
2019-05-22T17:45:44.717Z,3.25
2019-05-22T17:48:15.180Z,3.42
2019-05-22T17:50:44.998Z,3.00
2019-05-22T17:53:13.803Z,3.05
2019-05-22T17:55:43.944Z,2.52
2019-05-22T17:58:13.249Z,3.20
2019-05-22T18:00:45.524Z,2.70
2019-05-22T18:03:15.389Z,2.92
2019-05-22T18:05:44.237Z,3.02
2019-05-22T18:08:13.330Z,3.37
2019-05-22T18:10:44.250Z,2.98
2019-05-22T18:13:15.172Z,3.25
2019-05-22T18:15:43.915Z,3.08
2019-05-22T18:18:12.880Z,3.35
2019-05-22T18:20:43.603Z,3.47
2019-05-22T18:23:12.014Z,3.52
2019-05-22T18:25:40.741Z,3.75
2019-05-22T18:28:10.816Z,3.30
2019-05-22T18:30:41.592Z,3.65
2019-05-22T18:33:10.618Z,3.83
2019-05-22T18:35:39.717Z,3.40
2019-05-22T18:38:08.768Z,3.37
2019-05-22T18:40:37.605Z,3.87
2019-05-22T18:43:06.348Z,3.70
2019-05-22T18:45:36.329Z,3.60
2019-05-22T18:48:05.798Z,3.92
2019-05-22T18:50:35.534Z,3.50
2019-05-22T18:53:04.705Z,3.65
2019-05-22T18:55:33.613Z,4.08
2019-05-22T18:58:02.765Z,3.72
2019-05-22T19:00:32.863Z,3.87
2019-05-22T19:03:01.615Z,3.60
2019-05-22T19:05:33.649Z,3.65
2019-05-22T19:08:02.417Z,3.72
2019-05-22T19:10:31.742Z,3.90
2019-05-22T19:13:00.684Z,4.97
2019-05-22T19:15:29.779Z,4.22
2019-05-22T19:17:58.609Z,4.25
2019-05-22T19:20:27.439Z,4.90
2019-05-22T19:23:00.808Z,4.25
2019-05-22T19:25:27.505Z,4.62
2019-05-22T19:27:56.833Z,5.40
2019-05-22T19:30:26.229Z,4.70
2019-05-22T19:32:55.068Z,4.75
2019-05-22T19:35:23.751Z,4.45
2019-05-22T19:37:52.493Z,5.37
2019-05-22T19:40:21.918Z,5.00
2019-05-22T19:42:50.976Z,5.95
2019-05-22T19:45:19.994Z,5.25
2019-05-22T19:47:55.761Z,4.50
2019-05-22T19:50:25.269Z,5.40
2019-05-22T19:52:55.508Z,5.05
2019-05-22T19:55:27.660Z,5.37
2019-05-22T19:57:57.157Z,5.03
2019-05-22T20:00:26.360Z,5.72
2019-05-22T20:02:56.083Z,5.85
2019-05-22T20:05:25.496Z,6.35
2019-05-22T20:07:54.819Z,6.12
2019-05-22T20:10:23.943Z,6.42
2019-05-22T20:12:52.822Z,6.12
2019-05-22T20:15:22.559Z,7.17
2019-05-22T20:17:51.304Z,6.75
2019-05-22T20:20:20.805Z,7.62
2019-05-22T20:22:50.309Z,7.35
2019-05-22T20:25:20.408Z,7.65
2019-05-22T20:27:49.095Z,8.28
2019-05-22T20:30:20.154Z,8.60
2019-05-22T20:32:49.951Z,7.50
2019-05-22T20:35:18.821Z,7.10
2019-05-22T20:37:48.852Z,6.92
2019-05-22T20:40:19.182Z,7.22
2019-05-22T20:42:48.209Z,7.55
2019-05-22T20:45:21.349Z,8.55
2019-05-22T20:47:57.413Z,7.62
2019-05-22T20:50:26.755Z,7.62
2019-05-22T20:52:56.064Z,8.20
2019-05-22T20:55:25.110Z,7.92
2019-05-22T20:57:54.144Z,8.08
2019-05-22T21:00:23.396Z,8.38
2019-05-22T21:02:58.279Z,9.25
2019-05-22T21:05:27.518Z,8.55
2019-05-22T21:07:59.933Z,11.78
2019-05-22T21:10:29.868Z,10.37
2019-05-22T21:12:58.830Z,10.48
2019-05-22T21:15:29.475Z,11.12
2019-05-22T21:17:58.830Z,11.40
2019-05-22T21:20:30.493Z,13.03
2019-05-22T21:22:59.823Z,12.35
2019-05-22T21:25:29.415Z,11.43
2019-05-22T21:27:58.455Z,11.95
2019-05-22T21:30:27.889Z,11.25
2019-05-22T21:32:56.857Z,10.68
2019-05-22T21:35:25.980Z,11.40
2019-05-22T21:37:55.645Z,12.65
2019-05-22T21:40:25.162Z,12.03
2019-05-22T21:42:55.451Z,12.70
2019-05-22T21:45:25.561Z,13.55
2019-05-22T21:47:54.599Z,11.20
2019-05-22T21:50:23.607Z,13.83
2019-05-22T21:52:52.987Z,11.48
2019-05-22T21:55:21.896Z,10.63
2019-05-22T21:57:51.013Z,11.80
2019-05-22T22:00:36.925Z,11.95
2019-05-22T22:03:05.871Z,11.30
2019-05-22T22:05:34.668Z,11.50
2019-05-22T22:08:03.794Z,13.70
2019-05-22T22:10:32.487Z,13.50
2019-05-22T22:13:01.596Z,13.03
2019-05-22T22:15:31.591Z,13.60
2019-05-22T22:18:00.276Z,12.85
2019-05-22T22:20:28.977Z,14.98
2019-05-22T22:22:58.214Z,13.48
2019-05-22T22:25:27.505Z,12.60
2019-05-22T22:27:56.624Z,14.83
2019-05-22T22:30:29.987Z,13.15
2019-05-22T22:33:01.150Z,13.05
2019-05-22T22:35:31.512Z,12.28
2019-05-22T22:38:00.674Z,12.35
2019-05-22T22:40:29.793Z,11.55
2019-05-22T22:43:00.760Z,12.63
2019-05-22T22:45:39.796Z,12.30
2019-05-22T22:48:09.614Z,12.15
2019-05-22T22:50:40.309Z,12.13
2019-05-22T22:53:10.452Z,12.98
2019-05-22T22:55:40.358Z,15.03
2019-05-22T22:58:17.353Z,13.62
2019-05-22T23:00:43.347Z,13.87
2019-05-22T23:03:13.604Z,15.48
2019-05-22T23:05:44.520Z,14.20
2019-05-22T23:08:16.903Z,13.13
2019-05-22T23:10:46.187Z,14.30
2019-05-22T23:13:15.985Z,17.67
2019-05-22T23:15:46.407Z,15.38
2019-05-22T23:18:29.965Z,16.20
2019-05-22T23:23:25.259Z,12.30
2019-05-22T23:25:54.218Z,12.75
2019-05-22T23:28:34.129Z,14.03
2019-05-22T23:30:54.580Z,14.10
2019-05-22T23:33:23.784Z,14.98
2019-05-22T23:35:53.626Z,14.93
2019-05-22T23:38:23.047Z,12.95
2019-05-22T23:40:53.247Z,15.05
2019-05-22T23:43:22.442Z,13.88
2019-05-22T23:45:51.600Z,12.70
2019-05-22T23:48:20.682Z,13.85
2019-05-22T23:50:49.396Z,15.25
2019-05-22T23:53:18.607Z,14.93
2019-05-22T23:55:48.794Z,16.50
2019-05-22T23:58:20.145Z,18.42
